createdAt,value
2022-09-15T00:03:54.776Z,99406.78
2022-09-15T00:08:58.195Z,99403.25
2022-09-15T00:14:04.467Z,99407.75
2022-09-15T00:19:07.530Z,99402.34
2022-09-15T00:24:10.995Z,99410.72
2022-09-15T00:29:15.155Z,99416.41
2022-09-15T00:34:17.903Z,99411.50
2022-09-15T00:39:20.887Z,99417.94
2022-09-15T00:44:57.572Z,99417.19
2022-09-15T00:50:05.394Z,99412.47
2022-09-15T00:55:12.363Z,99403.97
2022-09-15T01:00:20.335Z,99410.69
2022-09-15T01:05:25.503Z,99406.56
2022-09-15T01:10:30.390Z,99403.22
2022-09-15T01:15:45.361Z,99404.91
2022-09-15T01:21:02.574Z,99409.75
2022-09-15T01:26:38.105Z,99402.91
2022-09-15T01:32:01.872Z,99406.66
2022-09-15T01:37:11.050Z,99407.53
2022-09-15T01:42:16.959Z,99414.78
2022-09-15T01:47:24.057Z,99415.84
2022-09-15T01:52:29.006Z,99417.72
2022-09-15T01:57:33.277Z,99411.91
2022-09-15T02:02:40.402Z,99422.03
2022-09-15T02:07:49.724Z,99416.13
2022-09-15T02:12:58.206Z,99411.28
2022-09-15T02:18:08.400Z,99412.13
2022-09-15T02:23:18.828Z,99412.16
2022-09-15T02:28:27.961Z,99411.78
2022-09-15T02:33:36.373Z,99408.50
2022-09-15T02:38:45.692Z,99401.03
2022-09-15T02:43:49.697Z,99393.56
2022-09-15T02:48:54.367Z,99392.75
2022-09-15T02:53:57.129Z,99392.75
2022-09-15T02:58:59.757Z,99399.38
2022-09-15T03:04:04.952Z,99394.66
2022-09-15T03:09:08.924Z,99401.88
2022-09-15T03:14:11.735Z,99396.13
2022-09-15T03:19:15.874Z,99402.13
2022-09-15T03:24:19.773Z,99409.25
2022-09-15T03:29:22.613Z,99404.97
2022-09-15T03:34:26.803Z,99405.00
2022-09-15T03:39:29.549Z,99413.06
2022-09-15T03:44:32.417Z,99420.47
2022-09-15T03:49:36.615Z,99418.94
2022-09-15T03:54:39.933Z,99427.84
2022-09-15T03:59:42.685Z,99420.88
2022-09-15T04:04:46.820Z,99421.16
2022-09-15T04:09:49.569Z,99411.31
2022-09-15T04:14:52.334Z,99410.09
2022-09-15T04:19:57.581Z,99412.56
2022-09-15T04:25:00.336Z,99411.63
2022-09-15T04:30:03.507Z,99415.47
2022-09-15T04:35:08.885Z,99421.38
2022-09-15T04:40:11.978Z,99432.59
2022-09-15T04:45:15.099Z,99423.16
2022-09-15T04:50:19.303Z,99418.25
2022-09-15T04:55:23.007Z,99424.06
2022-09-15T05:00:27.037Z,99425.81
2022-09-15T05:05:31.205Z,99416.94
2022-09-15T05:10:34.095Z,99423.63
2022-09-15T05:15:36.793Z,99424.53
2022-09-15T05:20:41.051Z,99430.13
2022-09-15T05:25:43.809Z,99433.03
2022-09-15T05:30:46.581Z,99425.31
2022-09-15T05:35:55.531Z,99431.69
2022-09-15T05:41:03.706Z,99435.63
2022-09-15T05:46:07.853Z,99431.75
2022-09-15T05:51:12.023Z,99439.47
2022-09-15T05:56:16.786Z,99433.06
2022-09-15T06:01:21.936Z,99434.63
2022-09-15T06:06:26.875Z,99438.84
2022-09-15T06:11:31.390Z,99449.13
2022-09-15T06:16:36.456Z,99448.09
2022-09-15T06:21:40.645Z,99457.91
2022-09-15T06:26:43.908Z,99461.91
2022-09-15T06:31:46.727Z,99463.59
2022-09-15T06:36:50.860Z,99454.44
2022-09-15T06:42:02.349Z,99461.84
2022-09-15T06:47:07.239Z,99463.22
2022-09-15T06:52:11.445Z,99468.16
2022-09-15T06:57:14.331Z,99463.56
2022-09-15T07:02:17.203Z,99471.97
2022-09-15T07:07:21.524Z,99472.13
2022-09-15T07:12:24.348Z,99483.34
2022-09-15T07:17:29.875Z,99484.19
2022-09-15T07:22:34.141Z,99483.19
2022-09-15T07:27:36.974Z,99485.06
2022-09-15T07:32:39.856Z,99479.28
2022-09-15T07:37:44.637Z,99491.16
2022-09-15T07:42:47.543Z,99485.22
2022-09-15T07:47:50.520Z,99485.25
2022-09-15T07:52:57.539Z,99493.66
2022-09-15T07:58:01.416Z,99504.94
2022-09-15T08:03:04.572Z,99496.03
2022-09-15T08:08:09.012Z,99517.66
2022-09-15T08:13:11.857Z,99517.47
2022-09-15T08:18:14.775Z,99521.88
2022-09-15T08:23:18.956Z,99525.56
2022-09-15T08:28:21.773Z,99533.16
2022-09-15T08:33:24.663Z,99532.41
2022-09-15T08:38:28.980Z,99524.59
2022-09-15T08:43:38.301Z,99533.47
2022-09-15T08:48:46.707Z,99544.78
2022-09-15T08:53:58.394Z,99534.34
2022-09-15T08:59:01.202Z,99543.63
2022-09-15T09:04:19.933Z,99545.59
2022-09-15T09:09:35.400Z,99544.63
2022-09-15T09:14:52.076Z,99538.63
2022-09-15T09:20:13.695Z,99534.72
2022-09-15T09:25:27.628Z,99530.75
2022-09-15T09:30:34.268Z,99530.63
2022-09-15T09:35:43.175Z,99529.91
2022-09-15T09:40:47.993Z,99526.25
2022-09-15T09:45:51.015Z,99516.88
2022-09-15T09:50:55.158Z,99541.53
2022-09-15T09:56:18.395Z,99522.69
2022-09-15T10:01:25.310Z,99526.13
2022-09-15T10:06:32.039Z,99516.75
2022-09-15T10:11:44.423Z,99534.81
2022-09-15T10:16:57.628Z,99519.00
2022-09-15T10:22:02.764Z,99510.22
2022-09-15T10:27:19.677Z,99503.91
2022-09-15T10:32:27.904Z,99509.66
2022-09-15T10:37:47.718Z,99516.34
2022-09-15T10:42:54.661Z,99497.03
2022-09-15T10:48:23.310Z,99494.13
2022-09-15T10:53:46.041Z,99499.75
2022-09-15T10:59:06.513Z,99501.50
2022-09-15T11:04:30.670Z,99494.19
2022-09-15T11:09:37.084Z,99510.72
2022-09-15T11:14:53.489Z,99491.44
2022-09-15T11:20:12.360Z,99497.28
2022-09-15T11:25:20.247Z,99505.16
2022-09-15T11:30:26.444Z,99506.31
2022-09-15T11:35:45.628Z,99516.91
2022-09-15T11:40:52.112Z,99514.31
2022-09-15T11:45:58.834Z,99515.91
2022-09-15T11:51:04.162Z,99513.56
2022-09-15T11:56:20.100Z,99512.81
2022-09-15T12:01:29.532Z,99513.63
2022-09-15T12:06:44.829Z,99498.84
2022-09-15T12:11:50.913Z,99509.78
2022-09-15T12:16:56.043Z,99510.88
2022-09-15T12:22:03.993Z,99504.31
2022-09-15T12:27:11.194Z,99495.56
2022-09-15T12:32:26.869Z,99502.03
2022-09-15T12:37:36.509Z,99500.28
2022-09-15T12:42:46.073Z,99500.41
2022-09-15T12:47:54.901Z,99501.72
2022-09-15T12:53:00.914Z,99500.19
2022-09-15T12:58:09.740Z,99498.28
2022-09-15T13:03:50.560Z,99498.81
2022-09-15T13:09:16.225Z,99488.72
2022-09-15T13:14:27.796Z,99481.59
2022-09-15T13:19:41.217Z,99490.06
2022-09-15T13:24:49.871Z,99499.91
2022-09-15T13:30:11.350Z,99497.94
2022-09-15T13:40:53.465Z,99492.13
2022-09-15T13:46:07.888Z,99518.50
2022-09-15T13:51:17.605Z,99508.16
2022-09-15T13:56:27.449Z,99501.69
2022-09-15T14:01:34.306Z,99496.59
2022-09-15T14:06:39.625Z,99504.19
2022-09-15T14:11:44.890Z,99513.47
2022-09-15T14:16:50.808Z,99503.03
2022-09-15T14:21:58.277Z,99489.31
2022-09-15T14:27:10.519Z,99492.44
2022-09-15T14:32:15.926Z,99493.81
2022-09-15T14:37:23.878Z,99482.28
2022-09-15T14:42:31.219Z,99479.75
2022-09-15T14:47:34.448Z,99484.84
2022-09-15T14:52:40.379Z,99489.78
2022-09-15T14:57:50.244Z,99505.38
2022-09-15T15:03:03.444Z,99508.75
2022-09-15T15:08:10.058Z,99502.63
2022-09-15T15:13:18.009Z,99505.81
2022-09-15T15:18:40.009Z,99503.72
2022-09-15T15:23:47.125Z,99512.94
2022-09-15T15:28:51.341Z,99528.28
2022-09-15T15:33:57.109Z,99509.63
2022-09-15T15:39:03.405Z,99519.09
2022-09-15T15:44:25.922Z,99516.81
2022-09-15T15:49:31.803Z,99521.06
2022-09-15T15:54:35.596Z,99507.66
2022-09-15T15:59:39.769Z,99509.47
2022-09-15T16:04:42.748Z,99503.28
2022-09-15T16:09:46.874Z,99513.09
2022-09-15T16:14:51.037Z,99506.56
2022-09-15T16:19:53.779Z,99515.53
2022-09-15T16:24:56.557Z,99514.41
2022-09-15T16:30:00.708Z,99514.81
2022-09-15T16:35:10.510Z,99538.38
2022-09-15T16:40:13.331Z,99532.78
2022-09-15T16:45:24.200Z,99545.81
2022-09-15T16:50:27.519Z,99544.25
2022-09-15T16:55:36.173Z,99541.25
2022-09-15T17:00:40.901Z,99543.66
2022-09-15T17:05:48.625Z,99559.50
2022-09-15T17:10:52.881Z,99560.34
2022-09-15T17:15:57.512Z,99573.69
2022-09-15T17:21:00.564Z,99566.88
2022-09-15T17:26:06.723Z,99581.81
2022-09-15T17:31:16.205Z,99587.72
2022-09-15T17:36:19.547Z,99585.00
2022-09-15T17:41:22.806Z,99585.84
2022-09-15T17:46:26.998Z,99581.78
2022-09-15T17:51:29.943Z,99572.00
2022-09-15T17:56:32.706Z,99573.88
2022-09-15T18:01:37.022Z,99566.25
2022-09-15T18:06:44.724Z,99580.19
2022-09-15T18:11:48.363Z,99584.38
2022-09-15T18:16:52.565Z,99592.03
2022-09-15T18:21:55.476Z,99596.03
2022-09-15T18:26:58.221Z,99601.81
2022-09-15T18:32:03.126Z,99615.47
2022-09-15T18:37:06.007Z,99616.41
2022-09-15T18:42:10.114Z,99628.75
2022-09-15T18:47:14.295Z,99623.72
2022-09-15T18:52:17.163Z,99615.28
2022-09-15T18:57:20.131Z,99625.91
2022-09-15T19:02:24.289Z,99619.84
2022-09-15T19:07:28.592Z,99624.09
2022-09-15T19:12:31.533Z,99630.44
2022-09-15T19:17:36.044Z,99627.56
2022-09-15T19:22:39.636Z,99621.22
2022-09-15T19:27:43.025Z,99620.44
2022-09-15T19:32:47.118Z,99630.88
2022-09-15T19:37:49.903Z,99634.09
2022-09-15T19:42:52.634Z,99636.78
2022-09-15T19:47:56.879Z,99627.56
2022-09-15T19:53:01.505Z,99649.56
2022-09-15T19:58:05.020Z,99640.38
2022-09-15T20:03:09.488Z,99645.75
2022-09-15T20:08:12.292Z,99644.13
2022-09-15T20:13:16.765Z,99643.00
2022-09-15T20:18:21.085Z,99652.63
2022-09-15T20:23:24.216Z,99657.91
2022-09-15T20:28:28.259Z,99649.03
2022-09-15T20:33:33.600Z,99666.69
2022-09-15T20:38:37.489Z,99666.47
2022-09-15T20:43:41.662Z,99667.06
2022-09-15T20:48:47.037Z,99669.03
2022-09-15T20:53:51.390Z,99669.50
2022-09-15T20:58:55.297Z,99673.88
2022-09-15T21:03:59.806Z,99674.16
2022-09-15T21:09:02.896Z,99674.47
2022-09-15T21:14:05.806Z,99678.44
2022-09-15T21:19:12.214Z,99677.19
2022-09-15T21:24:15.150Z,99685.25
2022-09-15T21:29:18.077Z,99675.03
2022-09-15T21:34:22.253Z,99682.06
2022-09-15T21:39:25.368Z,99677.09
2022-09-15T21:44:28.228Z,99680.91
2022-09-15T21:49:33.434Z,99689.28
2022-09-15T21:54:36.198Z,99690.00
2022-09-15T21:59:39.233Z,99695.91
2022-09-15T22:04:43.449Z,99694.50
2022-09-15T22:09:47.608Z,99691.16
2022-09-15T22:14:50.755Z,99687.63
2022-09-15T22:19:54.933Z,99691.88
2022-09-15T22:24:57.822Z,99695.94
2022-09-15T22:30:00.802Z,99693.03
2022-09-15T22:35:05.518Z,99686.69
2022-09-15T22:40:09.526Z,99701.84
2022-09-15T22:45:12.381Z,99700.53
2022-09-15T22:50:16.679Z,99693.72
2022-09-15T22:55:19.718Z,99694.47
2022-09-15T23:00:23.286Z,99698.97
2022-09-15T23:05:27.699Z,99703.97
2022-09-15T23:10:30.720Z,99703.06
2022-09-15T23:15:35.226Z,99702.81
2022-09-15T23:20:39.777Z,99701.25
2022-09-15T23:25:42.582Z,99689.91
2022-09-15T23:30:45.176Z,99686.84
2022-09-15T23:35:49.355Z,99689.78
2022-09-15T23:40:52.165Z,99686.53
2022-09-15T23:45:54.990Z,99686.25
2022-09-15T23:50:59.607Z,99688.84
2022-09-15T23:56:03.116Z,99691.63
